sensor_id;sensor_type;location;lat;lon;timestamp;temperature;humidity
68378;DHT22;55322;48.146;11.516;2024-02-26T00:01:25;3.64;77.70
68378;DHT22;55322;48.146;11.516;2024-02-26T00:03:51;3.61;77.63
68378;DHT22;55322;48.146;11.516;2024-02-26T00:06:17;3.63;77.23
68378;DHT22;55322;48.146;11.516;2024-02-26T00:08:43;3.60;77.63
68378;DHT22;55322;48.146;11.516;2024-02-26T00:11:09;3.58;77.44
68378;DHT22;55322;48.146;11.516;2024-02-26T00:13:34;3.58;77.31
68378;DHT22;55322;48.146;11.516;2024-02-26T00:15:59;3.63;77.03
68378;DHT22;55322;48.146;11.516;2024-02-26T00:18:25;3.55;77.45
68378;DHT22;55322;48.146;11.516;2024-02-26T00:20:50;3.51;77.60
68378;DHT22;55322;48.146;11.516;2024-02-26T00:23:16;3.50;77.76
68378;DHT22;55322;48.146;11.516;2024-02-26T00:25:41;3.43;77.89
68378;DHT22;55322;48.146;11.516;2024-02-26T00:28:08;3.45;77.04
68378;DHT22;55322;48.146;11.516;2024-02-26T00:30:34;3.45;76.95
68378;DHT22;55322;48.146;11.516;2024-02-26T00:32:59;3.47;76.58
68378;DHT22;55322;48.146;11.516;2024-02-26T00:35:24;3.47;76.27
68378;DHT22;55322;48.146;11.516;2024-02-26T00:37:50;3.53;75.97
68378;DHT22;55322;48.146;11.516;2024-02-26T00:40:15;3.50;76.16
68378;DHT22;55322;48.146;11.516;2024-02-26T00:42:40;3.40;76.48
68378;DHT22;55322;48.146;11.516;2024-02-26T00:45:14;3.43;76.38
68378;DHT22;55322;48.146;11.516;2024-02-26T00:47:39;3.37;76.51
68378;DHT22;55322;48.146;11.516;2024-02-26T00:50:07;3.33;76.91
68378;DHT22;55322;48.146;11.516;2024-02-26T00:52:33;3.30;76.87
68378;DHT22;55322;48.146;11.516;2024-02-26T00:54:59;3.24;77.17
68378;DHT22;55322;48.146;11.516;2024-02-26T00:57:24;3.20;77.24
68378;DHT22;55322;48.146;11.516;2024-02-26T00:59:50;3.16;77.50
68378;DHT22;55322;48.146;11.516;2024-02-26T01:02:16;3.19;77.37
68378;DHT22;55322;48.146;11.516;2024-02-26T01:04:41;3.13;77.51
68378;DHT22;55322;48.146;11.516;2024-02-26T01:07:06;3.13;77.88
68378;DHT22;55322;48.146;11.516;2024-02-26T01:09:32;2.95;78.92
68378;DHT22;55322;48.146;11.516;2024-02-26T01:11:57;2.95;78.03
68378;DHT22;55322;48.146;11.516;2024-02-26T01:14:22;2.97;77.85
68378;DHT22;55322;48.146;11.516;2024-02-26T01:16:48;2.99;77.96
68378;DHT22;55322;48.146;11.516;2024-02-26T01:19:14;2.99;77.52
68378;DHT22;55322;48.146;11.516;2024-02-26T01:21:39;3.02;77.22
68378;DHT22;55322;48.146;11.516;2024-02-26T01:24:05;3.04;76.91
68378;DHT22;55322;48.146;11.516;2024-02-26T01:26:30;3.09;76.71
68378;DHT22;55322;48.146;11.516;2024-02-26T01:28:56;3.04;76.78
68378;DHT22;55322;48.146;11.516;2024-02-26T01:31:21;3.13;76.55
68378;DHT22;55322;48.146;11.516;2024-02-26T01:33:46;3.06;77.16
68378;DHT22;55322;48.146;11.516;2024-02-26T01:36:12;3.02;76.96
68378;DHT22;55322;48.146;11.516;2024-02-26T01:38:37;2.95;78.03
68378;DHT22;55322;48.146;11.516;2024-02-26T01:41:03;2.85;78.06
68378;DHT22;55322;48.146;11.516;2024-02-26T01:43:28;2.83;78.07
68378;DHT22;55322;48.146;11.516;2024-02-26T01:45:54;2.86;77.64
68378;DHT22;55322;48.146;11.516;2024-02-26T01:48:20;2.96;77.18
68378;DHT22;55322;48.146;11.516;2024-02-26T01:50:46;2.96;77.57
68378;DHT22;55322;48.146;11.516;2024-02-26T01:53:11;2.96;77.16
68378;DHT22;55322;48.146;11.516;2024-02-26T01:55:37;2.99;76.99
68378;DHT22;55322;48.146;11.516;2024-02-26T01:58:03;2.96;76.79
68378;DHT22;55322;48.146;11.516;2024-02-26T02:00:28;2.97;76.62
68378;DHT22;55322;48.146;11.516;2024-02-26T02:02:54;2.99;77.00
68378;DHT22;55322;48.146;11.516;2024-02-26T02:05:20;2.95;76.89
68378;DHT22;55322;48.146;11.516;2024-02-26T02:07:46;2.95;77.06
68378;DHT22;55322;48.146;11.516;2024-02-26T02:10:15;2.93;77.04
68378;DHT22;55322;48.146;11.516;2024-02-26T02:12:40;2.90;77.01
68378;DHT22;55322;48.146;11.516;2024-02-26T02:15:06;2.89;77.28
68378;DHT22;55322;48.146;11.516;2024-02-26T02:17:32;2.85;77.45
68378;DHT22;55322;48.146;11.516;2024-02-26T02:19:57;2.82;77.68
68378;DHT22;55322;48.146;11.516;2024-02-26T02:22:22;2.76;77.95
68378;DHT22;55322;48.146;11.516;2024-02-26T02:24:52;2.72;77.83
68378;DHT22;55322;48.146;11.516;2024-02-26T02:27:17;2.69;77.98
68378;DHT22;55322;48.146;11.516;2024-02-26T02:29:43;2.69;78.01
68378;DHT22;55322;48.146;11.516;2024-02-26T02:32:09;2.75;77.31
68378;DHT22;55322;48.146;11.516;2024-02-26T02:34:35;2.71;77.58
68378;DHT22;55322;48.146;11.516;2024-02-26T02:37:00;2.73;77.42
68378;DHT22;55322;48.146;11.516;2024-02-26T02:39:26;2.69;77.43
68378;DHT22;55322;48.146;11.516;2024-02-26T02:41:51;2.69;77.48
68378;DHT22;55322;48.146;11.516;2024-02-26T02:44:16;2.69;77.13
68378;DHT22;55322;48.146;11.516;2024-02-26T02:46:42;2.63;77.65
68378;DHT22;55322;48.146;11.516;2024-02-26T02:49:09;2.63;77.33
68378;DHT22;55322;48.146;11.516;2024-02-26T02:51:35;2.59;77.27
68378;DHT22;55322;48.146;11.516;2024-02-26T02:54:01;2.63;77.14
68378;DHT22;55322;48.146;11.516;2024-02-26T02:56:26;2.59;77.22
68378;DHT22;55322;48.146;11.516;2024-02-26T02:58:52;2.59;76.83
68378;DHT22;55322;48.146;11.516;2024-02-26T03:01:17;2.56;76.90
68378;DHT22;55322;48.146;11.516;2024-02-26T03:03:42;2.56;76.86
68378;DHT22;55322;48.146;11.516;2024-02-26T03:06:08;2.53;77.01
68378;DHT22;55322;48.146;11.516;2024-02-26T03:08:33;2.58;77.06
68378;DHT22;55322;48.146;11.516;2024-02-26T03:11:03;2.56;77.14
68378;DHT22;55322;48.146;11.516;2024-02-26T03:13:29;2.55;77.05
68378;DHT22;55322;48.146;11.516;2024-02-26T03:15:54;2.56;77.08
68378;DHT22;55322;48.146;11.516;2024-02-26T03:18:19;2.53;77.22
68378;DHT22;55322;48.146;11.516;2024-02-26T03:20:45;2.53;77.11
68378;DHT22;55322;48.146;11.516;2024-02-26T03:23:10;2.60;76.94
68378;DHT22;55322;48.146;11.516;2024-02-26T03:25:38;2.56;76.87
68378;DHT22;55322;48.146;11.516;2024-02-26T03:28:03;2.60;76.79
68378;DHT22;55322;48.146;11.516;2024-02-26T03:30:29;2.62;76.73
68378;DHT22;55322;48.146;11.516;2024-02-26T03:32:54;2.62;76.52
68378;DHT22;55322;48.146;11.516;2024-02-26T03:35:19;2.60;76.53
68378;DHT22;55322;48.146;11.516;2024-02-26T03:37:46;2.63;76.49
68378;DHT22;55322;48.146;11.516;2024-02-26T03:40:12;2.63;76.30
68378;DHT22;55322;48.146;11.516;2024-02-26T03:42:39;2.63;76.20
68378;DHT22;55322;48.146;11.516;2024-02-26T03:45:05;2.66;76.26
68378;DHT22;55322;48.146;11.516;2024-02-26T03:47:31;2.63;76.34
68378;DHT22;55322;48.146;11.516;2024-02-26T03:49:56;2.58;76.54
68378;DHT22;55322;48.146;11.516;2024-02-26T03:52:22;2.58;76.56
68378;DHT22;55322;48.146;11.516;2024-02-26T03:54:47;2.56;76.59
68378;DHT22;55322;48.146;11.516;2024-02-26T03:57:12;2.58;76.50
68378;DHT22;55322;48.146;11.516;2024-02-26T03:59:38;2.55;76.74
68378;DHT22;55322;48.146;11.516;2024-02-26T04:02:04;2.53;76.89
68378;DHT22;55322;48.146;11.516;2024-02-26T04:04:30;2.56;77.12
68378;DHT22;55322;48.146;11.516;2024-02-26T04:06:58;2.50;77.03
68378;DHT22;55322;48.146;11.516;2024-02-26T04:09:24;2.58;76.86
68378;DHT22;55322;48.146;11.516;2024-02-26T04:11:49;2.58;76.84
68378;DHT22;55322;48.146;11.516;2024-02-26T04:14:15;2.59;76.61
68378;DHT22;55322;48.146;11.516;2024-02-26T04:16:40;2.58;76.55
68378;DHT22;55322;48.146;11.516;2024-02-26T04:19:06;2.60;76.19
68378;DHT22;55322;48.146;11.516;2024-02-26T04:21:32;2.59;76.01
68378;DHT22;55322;48.146;11.516;2024-02-26T04:23:57;2.59;76.06
68378;DHT22;55322;48.146;11.516;2024-02-26T04:26:26;2.60;76.06
68378;DHT22;55322;48.146;11.516;2024-02-26T04:28:51;2.59;76.03
68378;DHT22;55322;48.146;11.516;2024-02-26T04:31:18;2.58;77.14
68378;DHT22;55322;48.146;11.516;2024-02-26T04:33:43;2.50;77.04
68378;DHT22;55322;48.146;11.516;2024-02-26T04:36:13;2.39;77.60
68378;DHT22;55322;48.146;11.516;2024-02-26T04:38:40;2.38;77.01
68378;DHT22;55322;48.146;11.516;2024-02-26T04:41:05;2.41;76.96
68378;DHT22;55322;48.146;11.516;2024-02-26T04:43:30;2.45;76.44
68378;DHT22;55322;48.146;11.516;2024-02-26T04:45:56;2.45;76.15
68378;DHT22;55322;48.146;11.516;2024-02-26T04:48:22;2.44;76.16
68378;DHT22;55322;48.146;11.516;2024-02-26T04:50:48;2.52;75.85
68378;DHT22;55322;48.146;11.516;2024-02-26T04:53:13;2.52;75.83
68378;DHT22;55322;48.146;11.516;2024-02-26T04:55:39;2.53;75.90
68378;DHT22;55322;48.146;11.516;2024-02-26T04:58:04;2.50;75.80
68378;DHT22;55322;48.146;11.516;2024-02-26T05:00:29;2.52;75.59
68378;DHT22;55322;48.146;11.516;2024-02-26T05:02:55;2.53;75.57
68378;DHT22;55322;48.146;11.516;2024-02-26T05:05:20;2.50;75.75
68378;DHT22;55322;48.146;11.516;2024-02-26T05:07:46;2.53;75.68
68378;DHT22;55322;48.146;11.516;2024-02-26T05:10:11;2.56;75.84
68378;DHT22;55322;48.146;11.516;2024-02-26T05:12:37;2.53;76.10
68378;DHT22;55322;48.146;11.516;2024-02-26T05:15:03;2.48;76.69
68378;DHT22;55322;48.146;11.516;2024-02-26T05:17:28;2.46;76.36
68378;DHT22;55322;48.146;11.516;2024-02-26T05:19:54;2.37;77.81
68378;DHT22;55322;48.146;11.516;2024-02-26T05:22:19;2.29;79.12
68378;DHT22;55322;48.146;11.516;2024-02-26T05:24:45;2.24;78.23
68378;DHT22;55322;48.146;11.516;2024-02-26T05:27:10;2.14;81.12
68378;DHT22;55322;48.146;11.516;2024-02-26T05:29:37;2.05;81.07
68378;DHT22;55322;48.146;11.516;2024-02-26T05:32:02;1.91;81.75
68378;DHT22;55322;48.146;11.516;2024-02-26T05:34:28;1.78;81.74
68378;DHT22;55322;48.146;11.516;2024-02-26T05:36:55;1.71;82.72
68378;DHT22;55322;48.146;11.516;2024-02-26T05:39:20;1.63;83.15
68378;DHT22;55322;48.146;11.516;2024-02-26T05:41:45;1.59;83.04
68378;DHT22;55322;48.146;11.516;2024-02-26T05:44:11;1.56;83.23
68378;DHT22;55322;48.146;11.516;2024-02-26T05:46:36;1.57;83.53
68378;DHT22;55322;48.146;11.516;2024-02-26T05:49:02;1.60;84.26
68378;DHT22;55322;48.146;11.516;2024-02-26T05:51:28;1.66;84.08
68378;DHT22;55322;48.146;11.516;2024-02-26T05:53:53;1.68;84.52
68378;DHT22;55322;48.146;11.516;2024-02-26T05:56:21;1.71;84.22
68378;DHT22;55322;48.146;11.516;2024-02-26T05:58:47;1.75;84.06
68378;DHT22;55322;48.146;11.516;2024-02-26T06:01:13;1.80;83.82
68378;DHT22;55322;48.146;11.516;2024-02-26T06:03:38;1.85;82.89
68378;DHT22;55322;48.146;11.516;2024-02-26T06:06:04;1.85;81.99
68378;DHT22;55322;48.146;11.516;2024-02-26T06:08:30;1.87;82.15
68378;DHT22;55322;48.146;11.516;2024-02-26T06:10:56;2.13;78.72
68378;DHT22;55322;48.146;11.516;2024-02-26T06:13:21;2.27;80.13
68378;DHT22;55322;48.146;11.516;2024-02-26T06:15:47;2.41;78.91
68378;DHT22;55322;48.146;11.516;2024-02-26T06:18:12;2.48;80.20
68378;DHT22;55322;48.146;11.516;2024-02-26T06:20:37;2.45;81.05
68378;DHT22;55322;48.146;11.516;2024-02-26T06:23:03;2.39;80.77
68378;DHT22;55322;48.146;11.516;2024-02-26T06:25:28;2.46;79.87
68378;DHT22;55322;48.146;11.516;2024-02-26T06:27:54;2.50;81.48
68378;DHT22;55322;48.146;11.516;2024-02-26T06:30:20;2.50;82.39
68378;DHT22;55322;48.146;11.516;2024-02-26T06:32:45;2.55;81.87
68378;DHT22;55322;48.146;11.516;2024-02-26T06:35:11;2.55;81.76
68378;DHT22;55322;48.146;11.516;2024-02-26T06:37:37;2.53;81.14
68378;DHT22;55322;48.146;11.516;2024-02-26T06:40:02;2.62;81.48
68378;DHT22;55322;48.146;11.516;2024-02-26T06:42:32;2.66;81.01
68378;DHT22;55322;48.146;11.516;2024-02-26T06:44:58;2.69;81.33
68378;DHT22;55322;48.146;11.516;2024-02-26T06:47:23;2.69;81.03
68378;DHT22;55322;48.146;11.516;2024-02-26T06:49:48;2.78;81.24
68378;DHT22;55322;48.146;11.516;2024-02-26T06:52:14;2.83;80.96
68378;DHT22;55322;48.146;11.516;2024-02-26T06:54:39;2.89;81.68
68378;DHT22;55322;48.146;11.516;2024-02-26T06:57:05;2.99;81.85
68378;DHT22;55322;48.146;11.516;2024-02-26T06:59:30;3.02;80.79
68378;DHT22;55322;48.146;11.516;2024-02-26T07:01:55;3.00;79.82
68378;DHT22;55322;48.146;11.516;2024-02-26T07:04:21;3.02;78.72
68378;DHT22;55322;48.146;11.516;2024-02-26T07:06:47;3.04;79.46
68378;DHT22;55322;48.146;11.516;2024-02-26T07:09:12;3.13;77.71
68378;DHT22;55322;48.146;11.516;2024-02-26T07:11:38;3.28;77.96
68378;DHT22;55322;48.146;11.516;2024-02-26T07:14:07;3.41;79.75
68378;DHT22;55322;48.146;11.516;2024-02-26T07:16:32;3.51;80.30
68378;DHT22;55322;48.146;11.516;2024-02-26T07:18:58;3.60;80.39
68378;DHT22;55322;48.146;11.516;2024-02-26T07:21:23;3.71;80.21
68378;DHT22;55322;48.146;11.516;2024-02-26T07:23:49;3.77;80.56
68378;DHT22;55322;48.146;11.516;2024-02-26T07:26:14;3.82;81.29
68378;DHT22;55322;48.146;11.516;2024-02-26T07:28:40;3.92;80.37
68378;DHT22;55322;48.146;11.516;2024-02-26T07:31:05;3.98;80.56
68378;DHT22;55322;48.146;11.516;2024-02-26T07:33:30;4.09;78.63
68378;DHT22;55322;48.146;11.516;2024-02-26T07:35:56;4.30;78.32
68378;DHT22;55322;48.146;11.516;2024-02-26T07:38:21;4.52;79.31
68378;DHT22;55322;48.146;11.516;2024-02-26T07:40:48;4.69;78.26
68378;DHT22;55322;48.146;11.516;2024-02-26T07:43:13;4.90;77.24
68378;DHT22;55322;48.146;11.516;2024-02-26T07:45:39;4.97;75.78
68378;DHT22;55322;48.146;11.516;2024-02-26T07:48:04;5.08;77.09
68378;DHT22;55322;48.146;11.516;2024-02-26T07:50:30;5.11;76.66
68378;DHT22;55322;48.146;11.516;2024-02-26T07:52:55;5.00;76.50
68378;DHT22;55322;48.146;11.516;2024-02-26T07:55:21;4.93;76.44
68378;DHT22;55322;48.146;11.516;2024-02-26T07:57:47;4.93;76.10
68378;DHT22;55322;48.146;11.516;2024-02-26T08:00:13;4.88;75.15
68378;DHT22;55322;48.146;11.516;2024-02-26T08:02:42;4.88;75.12
68378;DHT22;55322;48.146;11.516;2024-02-26T08:05:07;4.90;75.03
68378;DHT22;55322;48.146;11.516;2024-02-26T08:07:33;4.98;74.20
68378;DHT22;55322;48.146;11.516;2024-02-26T08:09:58;5.03;74.06
68378;DHT22;55322;48.146;11.516;2024-02-26T08:12:23;5.14;74.52
68378;DHT22;55322;48.146;11.516;2024-02-26T08:14:49;5.31;75.14
68378;DHT22;55322;48.146;11.516;2024-02-26T08:17:14;5.55;73.97
68378;DHT22;55322;48.146;11.516;2024-02-26T08:19:39;5.82;71.66
68378;DHT22;55322;48.146;11.516;2024-02-26T08:22:05;6.14;73.03
68378;DHT22;55322;48.146;11.516;2024-02-26T08:24:30;6.51;73.71
68378;DHT22;55322;48.146;11.516;2024-02-26T08:26:56;6.81;70.73
68378;DHT22;55322;48.146;11.516;2024-02-26T08:29:21;7.02;69.27
68378;DHT22;55322;48.146;11.516;2024-02-26T08:31:47;7.11;66.84
68378;DHT22;55322;48.146;11.516;2024-02-26T08:34:13;7.32;68.63
68378;DHT22;55322;48.146;11.516;2024-02-26T08:36:38;7.52;69.32
68378;DHT22;55322;48.146;11.516;2024-02-26T08:39:04;7.56;68.73
68378;DHT22;55322;48.146;11.516;2024-02-26T08:41:29;7.69;69.40
68378;DHT22;55322;48.146;11.516;2024-02-26T08:43:55;7.69;66.31
68378;DHT22;55322;48.146;11.516;2024-02-26T08:46:20;7.79;69.16
68378;DHT22;55322;48.146;11.516;2024-02-26T08:48:46;7.80;66.96
68378;DHT22;55322;48.146;11.516;2024-02-26T08:51:11;7.65;66.09
68378;DHT22;55322;48.146;11.516;2024-02-26T08:53:36;7.38;65.87
68378;DHT22;55322;48.146;11.516;2024-02-26T08:56:02;7.28;67.97
68378;DHT22;55322;48.146;11.516;2024-02-26T08:58:28;7.26;67.25
68378;DHT22;55322;48.146;11.516;2024-02-26T09:00:54;7.33;68.15
68378;DHT22;55322;48.146;11.516;2024-02-26T09:03:20;7.25;66.65
68378;DHT22;55322;48.146;11.516;2024-02-26T09:05:45;7.26;67.86
68378;DHT22;55322;48.146;11.516;2024-02-26T09:08:11;7.26;67.82
68378;DHT22;55322;48.146;11.516;2024-02-26T09:10:36;7.23;66.94
68378;DHT22;55322;48.146;11.516;2024-02-26T09:13:02;7.38;68.47
68378;DHT22;55322;48.146;11.516;2024-02-26T09:15:27;7.35;66.15
68378;DHT22;55322;48.146;11.516;2024-02-26T09:17:53;7.45;65.11
68378;DHT22;55322;48.146;11.516;2024-02-26T09:20:18;7.42;63.50
68378;DHT22;55322;48.146;11.516;2024-02-26T09:22:47;7.48;62.82
68378;DHT22;55322;48.146;11.516;2024-02-26T09:25:13;7.48;62.80
68378;DHT22;55322;48.146;11.516;2024-02-26T09:27:41;7.74;65.01
68378;DHT22;55322;48.146;11.516;2024-02-26T09:30:07;8.00;62.47
68378;DHT22;55322;48.146;11.516;2024-02-26T09:32:32;8.27;63.73
68378;DHT22;55322;48.146;11.516;2024-02-26T09:34:58;8.49;61.79
68378;DHT22;55322;48.146;11.516;2024-02-26T09:37:23;8.47;59.44
68378;DHT22;55322;48.146;11.516;2024-02-26T09:39:48;8.86;58.29
68378;DHT22;55322;48.146;11.516;2024-02-26T09:42:14;9.10;57.82
68378;DHT22;55322;48.146;11.516;2024-02-26T09:44:43;9.58;57.49
68378;DHT22;55322;48.146;11.516;2024-02-26T09:47:10;9.81;56.78
68378;DHT22;55322;48.146;11.516;2024-02-26T09:49:36;10.31;55.27
68378;DHT22;55322;48.146;11.516;2024-02-26T09:52:04;9.98;51.14
68378;DHT22;55322;48.146;11.516;2024-02-26T09:54:30;9.65;52.37
68378;DHT22;55322;48.146;11.516;2024-02-26T09:56:59;9.23;53.02
68378;DHT22;55322;48.146;11.516;2024-02-26T09:59:26;9.09;53.26
68378;DHT22;55322;48.146;11.516;2024-02-26T10:01:53;9.10;54.25
68378;DHT22;55322;48.146;11.516;2024-02-26T10:04:19;9.09;53.80
68378;DHT22;55322;48.146;11.516;2024-02-26T10:06:45;9.33;54.18
68378;DHT22;55322;48.146;11.516;2024-02-26T10:09:12;9.55;53.12
68378;DHT22;55322;48.146;11.516;2024-02-26T10:11:38;9.48;52.06
68378;DHT22;55322;48.146;11.516;2024-02-26T10:14:05;9.39;52.58
68378;DHT22;55322;48.146;11.516;2024-02-26T10:16:31;9.42;53.86
68378;DHT22;55322;48.146;11.516;2024-02-26T10:18:58;9.48;54.23
68378;DHT22;55322;48.146;11.516;2024-02-26T10:21:23;9.73;55.47
68378;DHT22;55322;48.146;11.516;2024-02-26T10:23:49;9.80;54.14
68378;DHT22;55322;48.146;11.516;2024-02-26T10:26:18;10.01;53.50
68378;DHT22;55322;48.146;11.516;2024-02-26T10:28:45;9.65;53.54
68378;DHT22;55322;48.146;11.516;2024-02-26T10:31:11;9.70;53.88
68378;DHT22;55322;48.146;11.516;2024-02-26T10:33:37;9.84;54.17
68378;DHT22;55322;48.146;11.516;2024-02-26T10:36:07;10.17;54.12
68378;DHT22;55322;48.146;11.516;2024-02-26T10:38:34;10.46;53.34
68378;DHT22;55322;48.146;11.516;2024-02-26T10:41:07;10.66;54.82
68378;DHT22;55322;48.146;11.516;2024-02-26T10:43:33;10.41;53.52
68378;DHT22;55322;48.146;11.516;2024-02-26T10:45:59;10.28;52.47
68378;DHT22;55322;48.146;11.516;2024-02-26T10:48:24;10.21;52.78
68378;DHT22;55322;48.146;11.516;2024-02-26T10:50:50;10.39;52.77
68378;DHT22;55322;48.146;11.516;2024-02-26T10:53:22;10.50;51.00
68378;DHT22;55322;48.146;11.516;2024-02-26T10:56:08;10.22;50.21
68378;DHT22;55322;48.146;11.516;2024-02-26T10:58:34;10.39;51.23
68378;DHT22;55322;48.146;11.516;2024-02-26T11:01:00;10.77;50.49
68378;DHT22;55322;48.146;11.516;2024-02-26T11:03:26;11.04;49.17
68378;DHT22;55322;48.146;11.516;2024-02-26T11:05:53;11.34;48.94
68378;DHT22;55322;48.146;11.516;2024-02-26T11:08:20;11.67;47.57
68378;DHT22;55322;48.146;11.516;2024-02-26T11:10:52;11.61;45.49
68378;DHT22;55322;48.146;11.516;2024-02-26T11:13:19;11.85;47.79
68378;DHT22;55322;48.146;11.516;2024-02-26T11:15:46;12.01;46.94
68378;DHT22;55322;48.146;11.516;2024-02-26T11:18:14;12.17;45.90
68378;DHT22;55322;48.146;11.516;2024-02-26T11:20:41;12.64;44.65
68378;DHT22;55322;48.146;11.516;2024-02-26T11:23:07;13.44;45.55
68378;DHT22;55322;48.146;11.516;2024-02-26T11:25:37;13.69;46.53
68378;DHT22;55322;48.146;11.516;2024-02-26T11:28:06;13.65;42.12
68378;DHT22;55322;48.146;11.516;2024-02-26T11:30:35;13.34;42.84
68378;DHT22;55322;48.146;11.516;2024-02-26T11:33:01;13.11;42.20
68378;DHT22;55322;48.146;11.516;2024-02-26T11:35:28;13.45;45.58
68378;DHT22;55322;48.146;11.516;2024-02-26T11:37:54;13.53;42.06
68378;DHT22;55322;48.146;11.516;2024-02-26T11:40:25;13.51;43.08
68378;DHT22;55322;48.146;11.516;2024-02-26T11:42:51;13.08;43.17
68378;DHT22;55322;48.146;11.516;2024-02-26T11:48:12;13.10;43.52
68378;DHT22;55322;48.146;11.516;2024-02-26T11:50:47;13.24;43.49
68378;DHT22;55322;48.146;11.516;2024-02-26T11:53:20;13.44;42.76
68378;DHT22;55322;48.146;11.516;2024-02-26T11:55:46;13.44;42.56
68378;DHT22;55322;48.146;11.516;2024-02-26T11:58:11;13.99;42.49
68378;DHT22;55322;48.146;11.516;2024-02-26T12:00:40;14.13;41.65
68378;DHT22;55322;48.146;11.516;2024-02-26T12:03:05;14.08;42.54
68378;DHT22;55322;48.146;11.516;2024-02-26T12:05:34;14.22;42.16
68378;DHT22;55322;48.146;11.516;2024-02-26T12:08:04;13.95;42.14
68378;DHT22;55322;48.146;11.516;2024-02-26T12:10:38;14.18;40.60
68378;DHT22;55322;48.146;11.516;2024-02-26T12:13:12;14.06;41.45
68378;DHT22;55322;48.146;11.516;2024-02-26T12:15:40;14.26;41.17
68378;DHT22;55322;48.146;11.516;2024-02-26T12:18:08;14.06;41.61
68378;DHT22;55322;48.146;11.516;2024-02-26T12:20:36;13.78;42.35
68378;DHT22;55322;48.146;11.516;2024-02-26T12:23:05;13.55;44.10
68378;DHT22;55322;48.146;11.516;2024-02-26T12:25:31;13.54;42.59
68378;DHT22;55322;48.146;11.516;2024-02-26T12:27:58;13.59;42.63
68378;DHT22;55322;48.146;11.516;2024-02-26T12:30:24;13.65;43.12
68378;DHT22;55322;48.146;11.516;2024-02-26T12:32:55;13.82;41.41
68378;DHT22;55322;48.146;11.516;2024-02-26T12:35:26;13.58;41.89
68378;DHT22;55322;48.146;11.516;2024-02-26T12:37:53;13.83;43.26
68378;DHT22;55322;48.146;11.516;2024-02-26T12:40:19;13.68;43.55
68378;DHT22;55322;48.146;11.516;2024-02-26T12:42:44;13.54;42.88
68378;DHT22;55322;48.146;11.516;2024-02-26T12:45:11;13.58;42.07
68378;DHT22;55322;48.146;11.516;2024-02-26T12:47:41;13.30;43.74
68378;DHT22;55322;48.146;11.516;2024-02-26T12:50:08;13.17;43.00
68378;DHT22;55322;48.146;11.516;2024-02-26T12:52:34;13.30;41.54
68378;DHT22;55322;48.146;11.516;2024-02-26T12:55:02;13.27;42.91
68378;DHT22;55322;48.146;11.516;2024-02-26T12:57:30;13.40;45.57
68378;DHT22;55322;48.146;11.516;2024-02-26T12:59:56;13.57;43.48
68378;DHT22;55322;48.146;11.516;2024-02-26T13:02:22;13.59;42.95
68378;DHT22;55322;48.146;11.516;2024-02-26T13:04:47;13.48;43.25
68378;DHT22;55322;48.146;11.516;2024-02-26T13:07:13;13.37;43.35
68378;DHT22;55322;48.146;11.516;2024-02-26T13:09:38;13.21;43.05
68378;DHT22;55322;48.146;11.516;2024-02-26T13:12:05;13.25;43.31
68378;DHT22;55322;48.146;11.516;2024-02-26T13:14:31;13.43;42.67
68378;DHT22;55322;48.146;11.516;2024-02-26T13:16:59;13.30;42.97
68378;DHT22;55322;48.146;11.516;2024-02-26T13:19:25;13.23;42.84
68378;DHT22;55322;48.146;11.516;2024-02-26T13:21:51;13.31;43.91
68378;DHT22;55322;48.146;11.516;2024-02-26T13:24:20;13.31;43.10
68378;DHT22;55322;48.146;11.516;2024-02-26T13:26:45;13.10;43.73
68378;DHT22;55322;48.146;11.516;2024-02-26T13:29:18;12.89;41.11
68378;DHT22;55322;48.146;11.516;2024-02-26T13:31:43;12.82;42.48
68378;DHT22;55322;48.146;11.516;2024-02-26T13:34:09;12.79;43.05
68378;DHT22;55322;48.146;11.516;2024-02-26T13:36:34;12.83;45.52
68378;DHT22;55322;48.146;11.516;2024-02-26T13:38:59;12.92;45.03
68378;DHT22;55322;48.146;11.516;2024-02-26T13:41:26;12.79;43.57
68378;DHT22;55322;48.146;11.516;2024-02-26T13:43:52;12.52;42.30
68378;DHT22;55322;48.146;11.516;2024-02-26T13:46:17;12.48;42.25
68378;DHT22;55322;48.146;11.516;2024-02-26T13:48:43;12.50;42.28
68378;DHT22;55322;48.146;11.516;2024-02-26T13:51:09;12.30;42.78
68378;DHT22;55322;48.146;11.516;2024-02-26T13:53:34;12.28;43.15
68378;DHT22;55322;48.146;11.516;2024-02-26T13:56:00;12.24;42.59
68378;DHT22;55322;48.146;11.516;2024-02-26T13:58:27;12.19;40.96
68378;DHT22;55322;48.146;11.516;2024-02-26T14:00:55;12.12;41.96
68378;DHT22;55322;48.146;11.516;2024-02-26T14:03:21;12.08;42.43
68378;DHT22;55322;48.146;11.516;2024-02-26T14:05:47;12.05;42.88
68378;DHT22;55322;48.146;11.516;2024-02-26T14:08:12;12.05;44.11
68378;DHT22;55322;48.146;11.516;2024-02-26T14:10:38;12.04;42.57
68378;DHT22;55322;48.146;11.516;2024-02-26T14:13:04;11.99;41.88
68378;DHT22;55322;48.146;11.516;2024-02-26T14:15:30;12.01;43.74
68378;DHT22;55322;48.146;11.516;2024-02-26T14:17:56;11.99;44.37
68378;DHT22;55322;48.146;11.516;2024-02-26T14:20:22;11.97;43.58
68378;DHT22;55322;48.146;11.516;2024-02-26T14:22:51;11.85;42.42
68378;DHT22;55322;48.146;11.516;2024-02-26T14:25:23;11.84;44.02
68378;DHT22;55322;48.146;11.516;2024-02-26T14:27:49;11.70;42.70
68378;DHT22;55322;48.146;11.516;2024-02-26T14:30:14;11.64;42.79
68378;DHT22;55322;48.146;11.516;2024-02-26T14:32:40;11.61;43.19
68378;DHT22;55322;48.146;11.516;2024-02-26T14:35:06;11.68;45.38
68378;DHT22;55322;48.146;11.516;2024-02-26T14:37:32;11.67;45.11
68378;DHT22;55322;48.146;11.516;2024-02-26T14:39:58;11.61;46.10
68378;DHT22;55322;48.146;11.516;2024-02-26T14:42:23;11.61;46.76
68378;DHT22;55322;48.146;11.516;2024-02-26T14:44:49;11.44;48.06
68378;DHT22;55322;48.146;11.516;2024-02-26T14:47:16;11.35;50.03
68378;DHT22;55322;48.146;11.516;2024-02-26T14:49:41;11.34;50.96
68378;DHT22;55322;48.146;11.516;2024-02-26T14:52:07;11.35;50.89
68378;DHT22;55322;48.146;11.516;2024-02-26T14:54:33;11.33;51.84
68378;DHT22;55322;48.146;11.516;2024-02-26T14:57:03;11.23;53.02
68378;DHT22;55322;48.146;11.516;2024-02-26T14:59:29;11.16;53.15
68378;DHT22;55322;48.146;11.516;2024-02-26T15:01:54;11.06;53.92
68378;DHT22;55322;48.146;11.516;2024-02-26T15:04:20;10.96;56.46
68378;DHT22;55322;48.146;11.516;2024-02-26T15:06:45;10.86;54.90
68378;DHT22;55322;48.146;11.516;2024-02-26T15:09:10;10.77;57.02
68378;DHT22;55322;48.146;11.516;2024-02-26T15:11:39;10.68;58.38
68378;DHT22;55322;48.146;11.516;2024-02-26T15:14:06;10.62;57.55
68378;DHT22;55322;48.146;11.516;2024-02-26T15:16:31;10.56;57.14
68378;DHT22;55322;48.146;11.516;2024-02-26T15:18:57;10.52;57.32
68378;DHT22;55322;48.146;11.516;2024-02-26T15:21:23;10.48;61.11